Time;durP1;ratioP1;P1;durP2;ratioP2;P2;SDS_P1;SDS_P2;PMS_P1;PMS_P2;Temp;Humidity;BMP_temperature;BMP_pressure;BME280_temperature;BME280_humidity;BME280_pressure;Samples;Min_cycle;Max_cycle;Signal;HPM_P1;HPM_P2
2022/02/21 00:23:26;;;;;;;3.17;1.25;;;9.90;99.90;;;;;;10390184;28;20057;-61
2022/02/21 00:28:28;;;;;;;2.50;0.38;;;9.80;99.90;;;;;;10396604;28;20041;-61
2022/02/21 00:33:29;;;;;;;2.67;0.30;;;9.70;99.90;;;;;;10386384;28;20049;-60
2022/02/21 00:38:31;;;;;;;2.65;0.40;;;9.70;99.90;;;;;;10387262;28;20559;-61
2022/02/21 00:43:33;;;;;;;1.33;0.13;;;9.70;99.90;;;;;;10386585;28;20107;-61
2022/02/21 00:48:35;;;;;;;1.90;0.15;;;9.70;99.90;;;;;;10387457;28;20075;-61
2022/02/21 00:53:36;;;;;;;1.20;0.13;;;9.70;99.90;;;;;;10384062;28;20107;-61
2022/02/21 00:58:38;;;;;;;1.58;0.13;;;9.60;99.90;;;;;;10384754;28;20479;-61
2022/02/21 01:03:40;;;;;;;1.17;0.20;;;9.70;99.90;;;;;;10383616;28;20504;-61
2022/02/21 01:08:42;;;;;;;4.75;0.25;;;9.70;99.90;;;;;;10365768;28;20424;-61
2022/02/21 01:13:44;;;;;;;4.43;0.20;;;9.80;99.90;;;;;;10383054;28;20084;-61
2022/02/21 01:18:46;;;;;;;2.33;0.10;;;9.80;99.90;;;;;;10382321;28;20633;-61
2022/02/21 01:23:47;;;;;;;1.65;0.20;;;9.70;99.90;;;;;;10386805;28;20147;-61
2022/02/21 01:28:49;;;;;;;2.95;0.20;;;9.50;99.90;;;;;;10386501;28;20068;-61
2022/02/21 01:33:51;;;;;;;0.00;0.00;;;9.30;99.90;;;;;;10389324;28;20085;-60
2022/02/21 01:38:53;;;;;;;0.00;0.00;;;8.30;99.90;;;;;;10382590;28;20065;-60
2022/02/21 01:44:09;;;;;;;0.00;0.00;;;7.50;99.90;;;;;;10386481;28;20137;-61
2022/02/21 01:49:13;;;;;;;0.00;0.00;;;7.20;99.90;;;;;;10379986;28;20052;-60
2022/02/21 01:54:15;;;;;;;0.00;0.00;;;7.00;99.90;;;;;;10382188;28;20475;-61
2022/02/21 01:59:16;;;;;;;0.00;0.00;;;7.10;99.90;;;;;;10385171;28;20127;-61
2022/02/21 02:04:19;;;;;;;0.00;0.00;;;6.80;99.90;;;;;;10381951;28;20050;-60
2022/02/21 02:09:21;;;;;;;0.00;0.00;;;6.50;99.90;;;;;;10379971;28;20129;-60
2022/02/21 02:14:30;;;;;;;0.00;0.00;;;6.20;99.90;;;;;;10381472;28;20111;-60
2022/02/21 02:19:32;;;;;;;0.00;0.00;;;6.20;99.90;;;;;;10380122;28;20103;-61
2022/02/21 02:24:36;;;;;;;0.00;0.00;;;6.10;99.90;;;;;;10388009;28;20138;-60
2022/02/21 02:29:40;;;;;;;0.00;0.00;;;6.20;99.90;;;;;;10386531;28;20137;-60
2022/02/21 02:34:43;;;;;;;0.00;0.00;;;6.20;99.90;;;;;;10383816;28;20127;-61
2022/02/21 02:39:45;;;;;;;0.00;0.00;;;6.30;99.90;;;;;;10379739;28;20095;-60
2022/02/21 02:44:47;;;;;;;0.00;0.00;;;6.20;99.90;;;;;;10385637;28;20068;-60
2022/02/21 02:49:48;;;;;;;0.90;0.90;;;6.10;99.90;;;;;;10382158;28;20065;-61
2022/02/21 02:54:50;;;;;;;0.00;0.00;;;6.00;99.90;;;;;;10374507;28;20084;-60
2022/02/21 02:59:53;;;;;;;0.00;0.00;;;6.00;99.90;;;;;;10374776;28;20041;-61
2022/02/21 03:04:55;;;;;;;0.00;0.00;;;6.00;99.90;;;;;;10385495;28;20099;-61
2022/02/21 03:09:56;;;;;;;0.00;0.00;;;6.00;99.90;;;;;;10385731;28;20049;-60
2022/02/21 03:14:58;;;;;;;0.00;0.00;;;6.00;99.90;;;;;;10384954;28;20509;-60
2022/02/21 03:20:00;;;;;;;0.00;0.00;;;6.30;94.30;;;;;;10378439;28;20064;-60
2022/02/21 03:25:02;;;;;;;0.00;0.00;;;6.40;90.80;;;;;;10379945;28;20048;-61
2022/02/21 03:30:04;;;;;;;0.00;0.00;;;6.30;91.60;;;;;;10377948;28;20049;-61
2022/02/21 03:35:06;;;;;;;0.00;0.00;;;6.30;90.20;;;;;;10380451;28;20043;-61
2022/02/21 03:40:08;;;;;;;0.00;0.00;;;6.10;90.20;;;;;;10380805;28;20119;-61
2022/02/21 03:45:10;;;;;;;0.00;0.00;;;6.00;91.60;;;;;;10382736;28;20127;-61
2022/02/21 03:50:12;;;;;;;0.00;0.00;;;6.10;86.90;;;;;;10382845;28;20045;-61
2022/02/21 03:55:14;;;;;;;0.00;0.00;;;6.00;88.50;;;;;;10375283;28;20573;-61
2022/02/21 04:00:18;;;;;;;0.00;0.00;;;5.80;87.70;;;;;;10382557;28;20072;-61
2022/02/21 04:05:20;;;;;;;0.00;0.00;;;5.80;87.50;;;;;;10391702;28;20321;-61
2022/02/21 04:10:22;;;;;;;0.00;0.00;;;5.60;90.00;;;;;;10392053;28;20103;-61
2022/02/21 04:15:24;;;;;;;0.00;0.00;;;5.70;87.80;;;;;;10386153;28;20512;-61
2022/02/21 04:20:27;;;;;;;0.00;0.00;;;5.70;89.80;;;;;;10386399;28;20076;-61
2022/02/21 04:25:29;;;;;;;0.00;0.00;;;5.50;90.80;;;;;;10390032;28;20049;-61
2022/02/21 04:30:31;;;;;;;0.00;0.00;;;5.20;94.80;;;;;;10383834;28;20053;-61
2022/02/21 04:35:33;;;;;;;0.00;0.00;;;5.00;96.50;;;;;;10387470;28;20127;-61
2022/02/21 04:40:34;;;;;;;0.00;0.00;;;5.00;95.50;;;;;;10393403;28;20421;-61
2022/02/21 04:45:36;;;;;;;0.10;0.03;;;5.10;93.00;;;;;;10387261;28;20408;-60
2022/02/21 04:50:38;;;;;;;1.33;0.20;;;5.30;92.20;;;;;;10386310;28;20336;-61
2022/02/21 04:55:39;;;;;;;5.07;0.17;;;5.30;91.50;;;;;;10390824;28;20061;-61
2022/02/21 05:00:41;;;;;;;0.77;0.28;;;5.40;90.80;;;;;;10382974;28;20122;-61
2022/02/21 05:05:43;;;;;;;7.00;0.50;;;5.40;90.30;;;;;;10385288;28;20404;-61
2022/02/21 05:10:45;;;;;;;0.88;0.13;;;5.30;90.30;;;;;;10386168;28;20119;-61
2022/02/21 05:15:47;;;;;;;4.05;0.20;;;5.40;90.10;;;;;;10382429;28;20084;-61
2022/02/21 05:20:48;;;;;;;1.38;0.10;;;5.30;91.40;;;;;;10382785;28;20049;-60
2022/02/21 05:25:50;;;;;;;1.77;0.17;;;5.20;91.30;;;;;;10383925;28;20511;-61
2022/02/21 05:30:51;;;;;;;5.57;0.35;;;5.00;94.70;;;;;;10386342;28;20123;-61
2022/02/21 05:35:53;;;;;;;4.68;0.30;;;5.00;92.60;;;;;;10381540;28;20073;-60
2022/02/21 05:40:55;;;;;;;3.08;0.30;;;4.80;93.30;;;;;;10385605;28;20134;-61
2022/02/21 05:45:56;;;;;;;2.38;0.40;;;4.70;93.40;;;;;;10382340;28;20404;-61
2022/02/21 05:50:58;;;;;;;0.55;0.25;;;4.80;94.10;;;;;;10382827;28;20076;-61
2022/02/21 05:56:00;;;;;;;4.15;0.80;;;4.60;96.70;;;;;;10381231;28;20099;-61
2022/02/21 06:01:02;;;;;;;6.57;0.30;;;4.40;99.90;;;;;;10385979;28;20041;-61
2022/02/21 06:06:04;;;;;;;1.23;0.35;;;4.30;99.90;;;;;;10387639;28;20055;-62
2022/02/21 06:11:05;;;;;;;9.98;0.68;;;4.30;99.90;;;;;;10379247;28;20080;-61
2022/02/21 06:16:07;;;;;;;7.60;0.30;;;4.30;98.00;;;;;;10387809;28;20056;-61
2022/02/21 06:21:09;;;;;;;5.32;0.47;;;4.30;96.00;;;;;;10380218;28;20046;-61
2022/02/21 06:26:11;;;;;;;2.47;0.47;;;4.30;95.20;;;;;;10379764;28;20069;-67
2022/02/21 06:31:12;;;;;;;2.65;0.30;;;4.40;93.10;;;;;;10382913;28;20075;-67
2022/02/21 06:36:14;;;;;;;7.65;0.40;;;4.50;90.80;;;;;;10376708;28;20080;-67
2022/02/21 06:41:16;;;;;;;3.45;0.30;;;4.60;90.00;;;;;;10379376;28;20053;-67
2022/02/21 06:46:17;;;;;;;7.40;0.30;;;4.60;90.30;;;;;;10379143;28;20125;-67
2022/02/21 06:51:19;;;;;;;4.78;0.32;;;4.60;90.30;;;;;;10376548;28;20080;-67
2022/02/21 06:56:21;;;;;;;5.45;0.55;;;4.60;90.50;;;;;;10378126;28;20127;-67
2022/02/21 07:01:22;;;;;;;8.80;0.50;;;4.70;87.70;;;;;;10386702;28;20092;-67
2022/02/21 07:06:24;;;;;;;1.55;0.25;;;4.90;85.80;;;;;;10387370;28;20057;-68
2022/02/21 07:11:26;;;;;;;6.18;0.65;;;4.90;85.20;;;;;;10380517;28;20095;-68
2022/02/21 07:16:28;;;;;;;10.10;0.68;;;5.00;85.10;;;;;;10381002;28;20091;-67
2022/02/21 07:21:30;;;;;;;8.00;0.50;;;5.00;85.00;;;;;;10360299;28;20073;-68
2022/02/21 07:26:33;;;;;;;7.43;0.47;;;5.00;84.10;;;;;;10379737;28;20454;-68
2022/02/21 07:31:34;;;;;;;3.75;0.65;;;5.20;82.80;;;;;;10377299;28;20085;-68
2022/02/21 07:36:36;;;;;;;8.40;0.45;;;5.40;82.00;;;;;;10385115;28;20103;-68
2022/02/21 07:41:42;;;;;;;3.67;0.60;;;5.40;82.40;;;;;;10385958;28;21458;-68
2022/02/21 07:46:43;;;;;;;1.88;0.10;;;5.50;82.60;;;;;;10385931;28;20049;-68
2022/02/21 07:51:45;;;;;;;8.27;0.50;;;5.40;81.00;;;;;;10385093;28;20104;-66
2022/02/21 07:56:47;;;;;;;3.65;0.57;;;5.40;82.60;;;;;;10386133;28;20045;-67
2022/02/21 08:01:48;;;;;;;2.10;0.13;;;5.20;82.20;;;;;;10385993;28;20057;-68
2022/02/21 08:06:50;;;;;;;2.13;0.10;;;5.20;84.70;;;;;;10372299;28;20076;-67
2022/02/21 08:11:52;;;;;;;1.00;0.20;;;5.20;85.90;;;;;;10385060;28;20492;-67
2022/02/21 08:16:54;;;;;;;2.78;0.15;;;5.20;88.50;;;;;;10367755;28;20344;-67
2022/02/21 08:21:55;;;;;;;2.45;0.55;;;5.20;86.10;;;;;;10385587;28;20381;-67
2022/02/21 08:26:57;;;;;;;4.07;0.20;;;5.20;87.50;;;;;;10384930;28;20107;-68
2022/02/21 08:31:59;;;;;;;3.47;0.20;;;5.10;88.90;;;;;;10387520;28;20058;-68
2022/02/21 08:37:01;;;;;;;4.13;0.30;;;5.00;90.80;;;;;;10387812;28;20045;-68
2022/02/21 08:42:03;;;;;;;7.45;0.22;;;5.00;91.40;;;;;;10387911;28;20045;-68
2022/02/21 08:47:07;;;;;;;3.17;0.40;;;5.00;92.70;;;;;;10389621;28;20085;-67
2022/02/21 08:52:09;;;;;;;5.22;0.28;;;5.10;93.60;;;;;;10381788;28;20083;-68
2022/02/21 08:57:11;;;;;;;5.60;0.20;;;5.10;93.90;;;;;;10380746;28;20496;-68
2022/02/21 09:02:12;;;;;;;4.15;0.45;;;5.20;94.20;;;;;;10390638;28;20103;-68
2022/02/21 09:07:34;;;;;;;2.20;0.20;;;5.30;92.00;;;;;;10386011;28;20059;-68
2022/02/21 09:12:36;;;;;;;3.10;0.40;;;5.50;93.30;;;;;;10386449;28;20049;-68
2022/02/21 09:17:38;;;;;;;2.05;0.43;;;5.50;92.30;;;;;;10382054;28;20049;-67
2022/02/21 09:22:40;;;;;;;1.65;0.10;;;5.70;92.40;;;;;;10363471;28;20049;-67
2022/02/21 09:27:42;;;;;;;3.00;0.25;;;5.80;91.30;;;;;;10384795;28;20076;-66
2022/02/21 09:32:44;;;;;;;2.20;0.10;;;5.90;88.50;;;;;;10369898;28;20496;-66
2022/02/21 09:37:51;;;;;;;2.35;0.52;;;5.90;86.20;;;;;;10358910;28;20041;-66
2022/02/21 09:42:59;;;;;;;4.15;0.20;;;6.00;82.80;;;;;;10351847;28;20124;-66
2022/02/21 09:48:02;;;;;;;1.17;0.22;;;6.10;80.10;;;;;;10353275;28;20451;-67
2022/02/21 09:53:11;;;;;;;5.25;0.55;;;6.30;82.10;;;;;;10380965;28;20065;-67
2022/02/21 09:58:13;;;;;;;2.92;0.30;;;6.50;83.00;;;;;;10402110;28;20076;-67
2022/02/21 10:03:37;;;;;;;4.05;0.32;;;6.60;81.40;;;;;;10393995;28;20052;-67
2022/02/21 10:09:10;;;;;;;2.10;0.28;;;6.70;79.40;;;;;;10379353;28;20095;-67
2022/02/21 10:14:19;;;;;;;5.07;1.30;;;6.70;77.10;;;;;;10359949;28;20462;-67
2022/02/21 10:19:23;;;;;;;4.55;0.32;;;6.70;75.60;;;;;;10381569;28;20053;-69
2022/02/21 10:24:36;;;;;;;4.00;0.40;;;6.80;76.00;;;;;;10382160;28;20172;-68
2022/02/21 10:29:57;;;;;;;4.45;0.20;;;6.90;74.60;;;;;;10378206;28;20057;-68
2022/02/21 10:35:26;;;;;;;4.35;0.35;;;7.00;74.50;;;;;;10380445;28;20037;-67
2022/02/21 10:40:37;;;;;;;4.90;0.85;;;7.00;72.80;;;;;;10380442;28;20045;-62
2022/02/21 10:45:41;;;;;;;2.97;0.30;;;7.00;73.70;;;;;;10380925;28;20115;-62
2022/02/21 10:50:58;;;;;;;1.77;0.30;;;7.00;72.70;;;;;;10377596;28;20132;-62
2022/02/21 10:56:00;;;;;;;2.35;0.20;;;7.10;73.80;;;;;;10378035;28;20064;-67
2022/02/21 11:01:08;;;;;;;1.70;0.10;;;7.20;75.50;;;;;;10380453;28;20053;-66
2022/02/21 11:06:13;;;;;;;6.00;0.67;;;7.00;73.00;;;;;;10375457;28;20111;-67
2022/02/21 11:11:19;;;;;;;4.53;0.10;;;7.10;74.60;;;;;;10384428;28;20056;-66
2022/02/21 11:16:22;;;;;;;4.75;0.20;;;7.00;75.20;;;;;;10389958;28;20492;-66
2022/02/21 11:21:25;;;;;;;4.32;0.30;;;7.20;75.40;;;;;;10381371;28;20050;-67
2022/02/21 11:26:30;;;;;;;4.55;0.30;;;7.20;73.50;;;;;;10383852;28;20555;-66
2022/02/21 11:31:33;;;;;;;1.85;0.10;;;7.30;72.30;;;;;;10387554;28;20056;-66
2022/02/21 11:36:36;;;;;;;3.60;0.32;;;7.30;71.40;;;;;;10383135;28;20045;-68
2022/02/21 11:41:39;;;;;;;6.22;0.20;;;7.40;70.40;;;;;;10385660;28;20099;-66
2022/02/21 11:46:40;;;;;;;2.42;0.35;;;7.70;69.50;;;;;;10387170;28;20513;-67
2022/02/21 11:51:42;;;;;;;2.92;0.22;;;8.00;68.30;;;;;;10384461;28;20428;-67
2022/02/21 11:56:50;;;;;;;3.72;0.10;;;8.10;67.20;;;;;;10383475;28;20045;-67
2022/02/21 12:02:15;;;;;;;2.08;0.28;;;8.10;69.20;;;;;;10387924;28;20122;-68
2022/02/21 12:07:22;;;;;;;0.52;0.10;;;7.90;70.70;;;;;;10384046;28;20045;-67
2022/02/21 12:12:26;;;;;;;0.60;0.10;;;7.70;72.60;;;;;;10384622;28;20425;-67
2022/02/21 12:17:28;;;;;;;1.33;0.10;;;7.50;73.40;;;;;;10391763;28;20053;-66
2022/02/21 12:22:33;;;;;;;3.05;0.10;;;7.50;74.40;;;;;;10373918;28;20148;-67
2022/02/21 12:28:16;;;;;;;2.63;0.20;;;7.60;73.80;;;;;;10384506;28;20403;-66
2022/02/21 12:33:38;;;;;;;1.50;0.10;;;7.70;73.80;;;;;;10383124;28;20115;-65
2022/02/21 12:38:40;;;;;;;1.42;0.50;;;7.90;72.60;;;;;;10382665;28;20138;-65
2022/02/21 12:43:44;;;;;;;2.55;0.15;;;8.10;72.50;;;;;;10387331;28;20041;-66
2022/02/21 12:48:46;;;;;;;5.63;0.35;;;8.40;71.90;;;;;;10394411;28;20041;-66
2022/02/21 12:53:51;;;;;;;4.03;0.20;;;8.30;71.40;;;;;;10381729;28;20054;-66
2022/02/21 12:58:53;;;;;;;8.27;0.10;;;8.30;72.50;;;;;;10381296;28;20053;-66
2022/02/21 13:03:57;;;;;;;0.60;0.10;;;8.20;72.80;;;;;;10384433;28;21048;-66
2022/02/21 13:08:59;;;;;;;2.08;0.20;;;8.20;74.40;;;;;;10386410;28;20073;-66
2022/02/21 13:14:04;;;;;;;0.60;0.10;;;8.10;76.70;;;;;;10382592;28;20081;-66
2022/02/21 13:19:06;;;;;;;5.07;0.20;;;8.00;77.80;;;;;;10386577;28;20053;-66
2022/02/21 13:24:17;;;;;;;2.83;0.43;;;7.70;81.80;;;;;;10384072;28;20111;-66
2022/02/21 13:29:24;;;;;;;2.30;0.38;;;7.50;86.50;;;;;;10386869;28;20057;-66
2022/02/21 13:34:46;;;;;;;2.45;0.47;;;7.10;92.20;;;;;;10380640;28;20049;-66
2022/02/21 13:39:51;;;;;;;3.25;0.43;;;6.80;97.90;;;;;;10380336;28;20061;-66
2022/02/21 13:45:19;;;;;;;2.05;0.28;;;6.90;98.50;;;;;;10381248;28;20069;-66
2022/02/21 13:50:39;;;;;;;3.65;0.20;;;7.00;95.20;;;;;;10382357;28;20081;-66
2022/02/21 13:55:52;;;;;;;3.15;0.17;;;7.00;94.60;;;;;;10395287;28;20037;-66
2022/02/21 14:00:53;;;;;;;1.73;0.30;;;7.10;93.70;;;;;;10386185;28;20049;-66
2022/02/21 14:05:58;;;;;;;6.95;1.00;;;6.80;97.90;;;;;;10379679;28;20053;-65
2022/02/21 14:11:00;;;;;;;1.45;0.10;;;6.40;99.90;;;;;;10378447;28;20563;-64
2022/02/21 14:16:02;;;;;;;1.05;0.28;;;6.20;99.90;;;;;;10377531;28;20030;-64
2022/02/21 14:21:05;;;;;;;4.43;0.57;;;5.90;99.90;;;;;;10380734;28;20452;-66
2022/02/21 14:26:07;;;;;;;12.02;0.47;;;5.80;99.90;;;;;;10379454;28;20488;-65
2022/02/21 14:31:09;;;;;;;2.55;0.13;;;5.70;99.90;;;;;;10380623;28;20080;-65
2022/02/21 14:36:10;;;;;;;1.20;0.20;;;5.60;99.90;;;;;;10376561;28;20065;-67
2022/02/21 14:41:12;;;;;;;3.35;0.10;;;5.50;99.90;;;;;;10393230;28;20049;-64
2022/02/21 14:46:14;;;;;;;0.63;0.05;;;5.60;99.90;;;;;;10377017;28;20053;-65
2022/02/21 14:51:20;;;;;;;0.93;0.10;;;5.80;99.90;;;;;;10381789;28;20081;-64
2022/02/21 14:56:25;;;;;;;0.20;0.10;;;5.80;99.90;;;;;;10380952;28;20107;-65
2022/02/21 15:01:29;;;;;;;0.88;0.10;;;5.70;99.90;;;;;;10380046;28;20396;-65
2022/02/21 15:06:31;;;;;;;1.45;0.17;;;5.80;99.90;;;;;;10384228;28;20060;-66
2022/02/21 15:11:34;;;;;;;0.55;0.10;;;5.90;99.90;;;;;;10379472;28;20041;-66
2022/02/21 15:16:37;;;;;;;1.75;0.17;;;5.90;99.90;;;;;;10379153;28;20045;-67
2022/02/21 15:21:39;;;;;;;0.93;0.50;;;6.00;99.90;;;;;;10383236;28;20077;-66
2022/02/21 15:26:42;;;;;;;1.95;0.30;;;5.90;99.90;;;;;;10374049;28;20083;-67
2022/02/21 15:31:44;;;;;;;1.80;0.10;;;5.80;99.90;;;;;;10382213;28;20084;-65
2022/02/21 15:36:47;;;;;;;2.28;0.32;;;5.60;99.90;;;;;;10377114;28;20139;-66
2022/02/21 15:41:48;;;;;;;0.20;0.20;;;5.50;99.90;;;;;;10380234;28;20049;-66
2022/02/21 15:46:50;;;;;;;0.93;0.43;;;5.40;99.90;;;;;;10377783;28;20141;-66
2022/02/21 15:51:52;;;;;;;3.53;0.20;;;5.40;99.90;;;;;;10381169;28;20111;-66
2022/02/21 15:56:53;;;;;;;3.50;0.20;;;5.50;99.90;;;;;;10382816;28;20041;-67
2022/02/21 16:01:59;;;;;;;1.23;0.30;;;5.40;99.90;;;;;;10388318;28;20081;-66
2022/02/21 16:07:01;;;;;;;0.70;0.08;;;5.50;99.90;;;;;;10388265;28;20439;-66
2022/02/21 16:12:03;;;;;;;2.33;0.20;;;5.50;99.90;;;;;;10387742;28;20057;-66
2022/02/21 16:17:07;;;;;;;0.38;0.10;;;5.60;99.90;;;;;;10391657;28;20071;-66
2022/02/21 16:22:08;;;;;;;3.08;0.10;;;5.80;99.90;;;;;;10387514;28;20132;-66
2022/02/21 16:27:17;;;;;;;1.45;0.10;;;5.90;99.90;;;;;;10380242;28;20476;-66
2022/02/21 16:32:22;;;;;;;0.30;0.10;;;6.00;99.90;;;;;;10381010;28;20045;-65
2022/02/21 16:37:24;;;;;;;1.10;0.05;;;6.10;99.90;;;;;;10387887;28;20119;-65
2022/02/21 16:42:26;;;;;;;0.08;0.00;;;6.10;99.90;;;;;;10384793;28;20102;-65
2022/02/21 16:47:27;;;;;;;0.00;0.00;;;6.10;99.90;;;;;;10387627;28;20053;-65
2022/02/21 16:52:29;;;;;;;0.20;0.00;;;6.10;99.90;;;;;;10390818;28;20075;-65
2022/02/21 16:57:35;;;;;;;0.00;0.00;;;6.20;99.90;;;;;;10380490;28;20092;-67
2022/02/21 17:02:37;;;;;;;1.58;0.10;;;6.20;99.90;;;;;;10380898;28;20456;-67
2022/02/21 17:07:41;;;;;;;0.25;0.10;;;6.10;99.90;;;;;;10383745;28;20137;-68
2022/02/21 17:12:43;;;;;;;0.20;0.10;;;6.10;99.90;;;;;;10385101;28;20699;-65
2022/02/21 17:17:45;;;;;;;0.63;0.10;;;6.20;99.90;;;;;;10382364;28;20126;-65
2022/02/21 17:22:47;;;;;;;3.03;0.52;;;6.20;99.90;;;;;;10383640;28;20045;-65
2022/02/21 17:27:49;;;;;;;2.92;0.30;;;6.00;99.90;;;;;;10381694;28;20053;-65
2022/02/21 17:32:51;;;;;;;5.90;0.32;;;6.20;99.90;;;;;;10377407;28;20107;-65
2022/02/21 17:37:53;;;;;;;4.72;0.70;;;6.30;99.90;;;;;;10386336;28;20134;-64
2022/02/21 17:42:56;;;;;;;3.88;1.05;;;6.40;99.90;;;;;;10380743;28;20092;-64
2022/02/21 17:47:58;;;;;;;5.05;0.60;;;6.60;99.90;;;;;;10381790;28;20077;-65
2022/02/21 17:53:00;;;;;;;5.22;0.65;;;6.80;99.10;;;;;;10391032;28;20477;-65
2022/02/21 17:58:01;;;;;;;3.28;0.73;;;6.70;99.50;;;;;;10388115;28;20061;-66
2022/02/21 18:03:04;;;;;;;2.95;0.40;;;6.80;96.20;;;;;;10376455;28;20067;-66
2022/02/21 18:08:06;;;;;;;4.47;0.50;;;6.80;95.80;;;;;;10382166;28;20119;-66
2022/02/21 18:13:08;;;;;;;6.00;0.47;;;6.80;95.90;;;;;;10383048;28;20435;-66
2022/02/21 18:18:11;;;;;;;6.05;0.60;;;6.70;96.60;;;;;;10383569;28;20069;-66
2022/02/21 18:23:13;;;;;;;1.95;0.60;;;6.50;99.90;;;;;;10383533;28;20046;-65
2022/02/21 18:28:17;;;;;;;6.03;0.85;;;6.30;99.90;;;;;;10387223;28;20598;-65
2022/02/21 18:33:20;;;;;;;2.78;0.45;;;6.20;99.90;;;;;;10381028;28;20045;-65
2022/02/21 18:38:21;;;;;;;3.40;0.38;;;6.20;99.90;;;;;;10383700;28;20053;-65
2022/02/21 18:43:23;;;;;;;5.07;0.82;;;6.20;99.90;;;;;;10383725;28;20077;-65
2022/02/21 18:48:25;;;;;;;5.15;0.57;;;6.30;97.10;;;;;;10382855;28;20085;-64
2022/02/21 18:53:28;;;;;;;1.85;0.30;;;6.40;95.80;;;;;;10383376;28;20041;-65
2022/02/21 18:58:36;;;;;;;;;;;6.40;94.00;;;;;;10382681;28;20053;-65
2022/02/21 19:03:45;;;;;;;5.07;0.30;;;6.40;92.60;;;;;;10378458;28;19933;-65
2022/02/21 19:08:46;;;;;;;5.25;0.90;;;6.30;95.00;;;;;;10377422;28;20139;-65
2022/02/21 19:13:48;;;;;;;4.75;0.70;;;6.40;94.70;;;;;;10376562;28;20664;-65
2022/02/21 19:18:53;;;;;;;3.50;0.50;;;6.30;95.90;;;;;;10385817;28;20095;-65
2022/02/21 19:23:56;;;;;;;3.55;0.43;;;6.20;96.60;;;;;;10378323;28;20074;-66
2022/02/21 19:28:57;;;;;;;5.50;0.47;;;6.20;96.60;;;;;;10382592;28;20049;-65
2022/02/21 19:34:00;;;;;;;7.68;0.40;;;6.10;97.50;;;;;;10388732;28;20155;-66
2022/02/21 19:39:01;;;;;;;3.35;0.40;;;6.10;96.00;;;;;;10396184;28;20513;-66
2022/02/21 19:44:03;;;;;;;3.80;0.63;;;6.10;93.20;;;;;;10387022;28;20088;-65
2022/02/21 19:49:05;;;;;;;3.55;0.32;;;6.10;92.70;;;;;;10393833;28;20377;-65
2022/02/21 19:54:07;;;;;;;2.30;0.28;;;6.00;93.10;;;;;;10387570;28;20496;-65
2022/02/21 19:59:09;;;;;;;3.83;0.40;;;6.10;93.00;;;;;;10387186;28;20118;-65
2022/02/21 20:04:12;;;;;;;2.92;0.55;;;6.00;94.70;;;;;;10383482;28;20065;-65
2022/02/21 20:09:13;;;;;;;0.85;0.20;;;6.00;95.80;;;;;;10385813;28;20143;-65
2022/02/21 20:14:15;;;;;;;4.85;0.35;;;5.90;96.90;;;;;;10388692;28;20071;-65
2022/02/21 20:19:17;;;;;;;3.20;0.43;;;5.90;96.80;;;;;;10383794;28;20076;-65
2022/02/21 20:24:18;;;;;;;2.95;0.25;;;5.90;97.30;;;;;;10388051;28;20072;-65
2022/02/21 20:29:20;;;;;;;2.58;0.20;;;5.90;97.80;;;;;;10385298;28;20489;-65
2022/02/21 20:34:22;;;;;;;1.95;0.30;;;6.00;97.40;;;;;;10388399;28;20056;-65
2022/02/21 20:39:24;;;;;;;3.80;0.30;;;5.90;98.70;;;;;;10370362;28;20431;-65
2022/02/21 20:44:26;;;;;;;5.28;0.50;;;5.90;99.80;;;;;;10384433;28;20053;-64
2022/02/21 20:49:28;;;;;;;4.78;0.35;;;5.80;99.90;;;;;;10388632;28;20077;-64
2022/02/21 20:54:43;;;;;;;5.03;0.30;;;5.60;99.90;;;;;;10385000;28;20054;-64
2022/02/21 20:59:45;;;;;;;3.25;1.45;;;5.60;99.90;;;;;;10382846;28;20057;-69
2022/02/21 21:04:47;;;;;;;10.95;0.20;;;5.70;99.90;;;;;;10381743;28;20122;-69
2022/02/21 21:09:48;;;;;;;3.00;0.20;;;5.70;99.90;;;;;;10382340;28;20057;-68
2022/02/21 21:14:51;;;;;;;3.30;0.30;;;5.80;99.90;;;;;;10383425;28;20049;-68
2022/02/21 21:19:52;;;;;;;4.70;0.30;;;5.90;99.90;;;;;;10387412;28;20056;-67
2022/02/21 21:24:54;;;;;;;3.00;0.65;;;6.00;99.60;;;;;;10376841;28;20061;-65
2022/02/21 21:29:56;;;;;;;4.10;0.50;;;6.10;98.50;;;;;;10388901;28;20053;-64
2022/02/21 21:34:57;;;;;;;6.20;0.30;;;6.00;99.20;;;;;;10383706;28;20102;-65
2022/02/21 21:39:59;;;;;;;1.63;0.30;;;6.10;98.70;;;;;;10384132;28;20128;-64
2022/02/21 21:45:01;;;;;;;5.95;0.75;;;6.20;97.30;;;;;;10385413;28;20045;-65
2022/02/21 21:50:03;;;;;;;4.40;0.38;;;6.40;95.90;;;;;;10384203;28;20057;-64
2022/02/21 21:55:06;;;;;;;2.60;0.25;;;6.40;96.20;;;;;;10384200;28;20042;-65
2022/02/21 22:00:09;;;;;;;4.47;0.60;;;6.40;96.50;;;;;;10387184;28;20122;-65
2022/02/21 22:05:11;;;;;;;1.48;0.65;;;6.40;97.60;;;;;;10381977;28;20045;-66
2022/02/21 22:10:13;;;;;;;4.57;0.30;;;6.30;97.80;;;;;;10376780;28;20138;-60
2022/02/21 22:15:15;;;;;;;4.03;0.10;;;6.40;95.60;;;;;;10380089;28;20053;-60
2022/02/21 22:20:18;;;;;;;5.75;0.20;;;6.30;95.20;;;;;;10378010;28;20049;-60
2022/02/21 22:25:19;;;;;;;3.97;0.20;;;6.50;91.10;;;;;;10388988;28;20069;-60
2022/02/21 22:30:21;;;;;;;2.67;0.10;;;6.40;92.10;;;;;;10384326;28;20045;-60
2022/02/21 22:35:23;;;;;;;3.20;0.20;;;6.40;92.70;;;;;;10379152;28;20139;-62
2022/02/21 22:40:25;;;;;;;0.25;0.10;;;6.40;93.70;;;;;;10381650;28;20618;-60
2022/02/21 22:45:26;;;;;;;2.97;0.20;;;6.30;93.50;;;;;;10379380;28;20136;-61
2022/02/21 22:50:28;;;;;;;2.53;0.20;;;6.20;94.30;;;;;;10386093;28;20061;-60
2022/02/21 22:55:30;;;;;;;7.32;0.65;;;6.20;94.00;;;;;;10382654;28;20042;-61
2022/02/21 23:00:57;;;;;;;5.43;0.63;;;6.20;93.40;;;;;;10386205;28;20107;-59
2022/02/21 23:05:59;;;;;;;1.00;0.70;;;6.20;92.80;;;;;;10377893;28;20112;-59
2022/02/21 23:11:00;;;;;;;2.83;0.85;;;6.10;95.10;;;;;;10377144;28;20340;-62
2022/02/21 23:16:02;;;;;;;3.42;0.20;;;6.00;96.00;;;;;;10380263;28;20639;-60
2022/02/21 23:21:05;;;;;;;0.75;0.20;;;6.00;96.60;;;;;;10383180;28;20061;-60
2022/02/21 23:26:07;;;;;;;4.97;0.65;;;5.80;97.50;;;;;;10381047;28;20064;-60
2022/02/21 23:31:08;;;;;;;3.60;0.30;;;5.80;97.50;;;;;;10384511;28;20053;-60
2022/02/21 23:36:11;;;;;;;3.35;0.50;;;5.70;97.50;;;;;;10384058;28;20056;-60
2022/02/21 23:41:12;;;;;;;7.82;0.50;;;6.00;95.20;;;;;;10378107;28;20109;-60
2022/02/21 23:46:14;;;;;;;5.97;0.47;;;5.90;96.00;;;;;;10378098;28;20124;-60
2022/02/21 23:51:16;;;;;;;6.70;0.45;;;6.00;95.10;;;;;;10379649;28;20041;-59
2022/02/21 23:56:18;;;;;;;1.73;0.47;;;6.00;94.00;;;;;;10384770;28;20092;-60
